sensor_id;sensor_type;location;lat;lon;timestamp;P1;durP1;ratioP1;P2;durP2;ratioP2
14169;SDS011;63889;50.596;8.690;2023-08-07T00:02:14;1.38;;;0.60;;
14169;SDS011;63889;50.596;8.690;2023-08-07T00:04:39;1.85;;;0.30;;
14169;SDS011;63889;50.596;8.690;2023-08-07T00:07:05;1.50;;;0.40;;
14169;SDS011;63889;50.596;8.690;2023-08-07T00:09:30;1.60;;;0.30;;
14169;SDS011;63889;50.596;8.690;2023-08-07T00:11:56;0.35;;;0.30;;
14169;SDS011;63889;50.596;8.690;2023-08-07T00:14:22;1.73;;;0.32;;
14169;SDS011;63889;50.596;8.690;2023-08-07T00:16:47;1.67;;;0.82;;
14169;SDS011;63889;50.596;8.690;2023-08-07T00:19:20;1.92;;;0.77;;
14169;SDS011;63889;50.596;8.690;2023-08-07T00:21:45;1.27;;;1.10;;
14169;SDS011;63889;50.596;8.690;2023-08-07T00:24:11;1.27;;;1.02;;
14169;SDS011;63889;50.596;8.690;2023-08-07T00:26:36;1.83;;;1.70;;
14169;SDS011;63889;50.596;8.690;2023-08-07T00:29:02;1.30;;;1.20;;
14169;SDS011;63889;50.596;8.690;2023-08-07T00:31:27;1.83;;;1.30;;
14169;SDS011;63889;50.596;8.690;2023-08-07T00:33:56;2.15;;;1.30;;
14169;SDS011;63889;50.596;8.690;2023-08-07T00:36:22;1.63;;;1.30;;
14169;SDS011;63889;50.596;8.690;2023-08-07T00:38:48;1.20;;;0.95;;
14169;SDS011;63889;50.596;8.690;2023-08-07T00:41:13;1.55;;;0.95;;
14169;SDS011;63889;50.596;8.690;2023-08-07T00:43:41;2.08;;;1.00;;
14169;SDS011;63889;50.596;8.690;2023-08-07T00:46:06;0.95;;;0.82;;
14169;SDS011;63889;50.596;8.690;2023-08-07T00:48:32;1.35;;;1.05;;
14169;SDS011;63889;50.596;8.690;2023-08-07T00:50:58;1.35;;;0.95;;
14169;SDS011;63889;50.596;8.690;2023-08-07T00:53:24;0.95;;;0.95;;
14169;SDS011;63889;50.596;8.690;2023-08-07T00:55:50;2.92;;;0.85;;
14169;SDS011;63889;50.596;8.690;2023-08-07T00:58:16;1.77;;;0.80;;
14169;SDS011;63889;50.596;8.690;2023-08-07T01:00:42;3.90;;;0.80;;
14169;SDS011;63889;50.596;8.690;2023-08-07T01:03:08;1.13;;;0.88;;
14169;SDS011;63889;50.596;8.690;2023-08-07T01:05:35;0.82;;;0.80;;
14169;SDS011;63889;50.596;8.690;2023-08-07T01:08:01;1.95;;;0.82;;
14169;SDS011;63889;50.596;8.690;2023-08-07T01:10:34;2.40;;;0.60;;
14169;SDS011;63889;50.596;8.690;2023-08-07T01:15:59;1.88;;;0.85;;
14169;SDS011;63889;50.596;8.690;2023-08-07T01:18:28;2.25;;;1.13;;
14169;SDS011;63889;50.596;8.690;2023-08-07T01:20:55;0.90;;;0.90;;
14169;SDS011;63889;50.596;8.690;2023-08-07T01:23:21;2.00;;;1.17;;
14169;SDS011;63889;50.596;8.690;2023-08-07T01:25:47;1.05;;;0.82;;
14169;SDS011;63889;50.596;8.690;2023-08-07T01:28:16;1.77;;;1.10;;
14169;SDS011;63889;50.596;8.690;2023-08-07T01:30:54;1.02;;;0.95;;
14169;SDS011;63889;50.596;8.690;2023-08-07T01:33:27;4.32;;;1.10;;
14169;SDS011;63889;50.596;8.690;2023-08-07T01:36:04;0.65;;;0.50;;
14169;SDS011;63889;50.596;8.690;2023-08-07T01:38:31;1.15;;;0.80;;
14169;SDS011;63889;50.596;8.690;2023-08-07T01:40:58;1.20;;;1.00;;
14169;SDS011;63889;50.596;8.690;2023-08-07T01:43:26;3.20;;;1.25;;
14169;SDS011;63889;50.596;8.690;2023-08-07T01:45:54;0.95;;;0.77;;
14169;SDS011;63889;50.596;8.690;2023-08-07T01:48:20;0.85;;;0.80;;
14169;SDS011;63889;50.596;8.690;2023-08-07T01:50:45;1.30;;;0.90;;
14169;SDS011;63889;50.596;8.690;2023-08-07T01:53:11;1.58;;;0.82;;
14169;SDS011;63889;50.596;8.690;2023-08-07T01:55:37;0.93;;;0.77;;
14169;SDS011;63889;50.596;8.690;2023-08-07T01:58:02;1.02;;;0.75;;
14169;SDS011;63889;50.596;8.690;2023-08-07T02:00:28;1.13;;;0.80;;
14169;SDS011;63889;50.596;8.690;2023-08-07T02:02:53;1.23;;;0.73;;
14169;SDS011;63889;50.596;8.690;2023-08-07T02:05:21;1.25;;;0.70;;
14169;SDS011;63889;50.596;8.690;2023-08-07T02:07:46;2.00;;;0.73;;
14169;SDS011;63889;50.596;8.690;2023-08-07T02:10:12;1.85;;;0.70;;
14169;SDS011;63889;50.596;8.690;2023-08-07T02:12:37;3.70;;;1.38;;
14169;SDS011;63889;50.596;8.690;2023-08-07T02:15:03;2.75;;;0.60;;
14169;SDS011;63889;50.596;8.690;2023-08-07T02:17:29;6.80;;;0.90;;
14169;SDS011;63889;50.596;8.690;2023-08-07T02:19:56;4.70;;;0.68;;
14169;SDS011;63889;50.596;8.690;2023-08-07T02:22:21;0.68;;;0.57;;
14169;SDS011;63889;50.596;8.690;2023-08-07T02:24:47;1.15;;;0.70;;
14169;SDS011;63889;50.596;8.690;2023-08-07T02:27:13;2.42;;;0.68;;
14169;SDS011;63889;50.596;8.690;2023-08-07T02:29:38;2.55;;;0.70;;
14169;SDS011;63889;50.596;8.690;2023-08-07T02:32:04;3.50;;;1.00;;
14169;SDS011;63889;50.596;8.690;2023-08-07T02:34:30;2.95;;;0.88;;
14169;SDS011;63889;50.596;8.690;2023-08-07T02:36:56;2.80;;;0.80;;
14169;SDS011;63889;50.596;8.690;2023-08-07T02:39:22;1.40;;;0.82;;
14169;SDS011;63889;50.596;8.690;2023-08-07T02:41:48;0.75;;;0.60;;
14169;SDS011;63889;50.596;8.690;2023-08-07T02:44:13;4.00;;;0.88;;
14169;SDS011;63889;50.596;8.690;2023-08-07T02:46:39;4.15;;;0.77;;
14169;SDS011;63889;50.596;8.690;2023-08-07T02:49:05;4.10;;;0.75;;
14169;SDS011;63889;50.596;8.690;2023-08-07T02:51:30;5.03;;;0.88;;
14169;SDS011;63889;50.596;8.690;2023-08-07T02:53:57;3.60;;;0.80;;
14169;SDS011;63889;50.596;8.690;2023-08-07T02:56:22;0.60;;;0.50;;
14169;SDS011;63889;50.596;8.690;2023-08-07T02:58:48;1.50;;;0.70;;
14169;SDS011;63889;50.596;8.690;2023-08-07T03:01:20;5.28;;;1.15;;
14169;SDS011;63889;50.596;8.690;2023-08-07T03:03:46;5.03;;;0.90;;
14169;SDS011;63889;50.596;8.690;2023-08-07T03:06:12;3.80;;;0.60;;
14169;SDS011;63889;50.596;8.690;2023-08-07T03:08:38;1.05;;;0.57;;
14169;SDS011;63889;50.596;8.690;2023-08-07T03:11:03;2.22;;;0.82;;
14169;SDS011;63889;50.596;8.690;2023-08-07T03:13:29;5.63;;;1.10;;
14169;SDS011;63889;50.596;8.690;2023-08-07T03:15:58;1.00;;;0.50;;
14169;SDS011;63889;50.596;8.690;2023-08-07T03:18:24;1.88;;;0.50;;
14169;SDS011;63889;50.596;8.690;2023-08-07T03:20:50;0.40;;;0.40;;
14169;SDS011;63889;50.596;8.690;2023-08-07T03:23:15;1.10;;;0.63;;
14169;SDS011;63889;50.596;8.690;2023-08-07T03:25:41;1.98;;;0.77;;
14169;SDS011;63889;50.596;8.690;2023-08-07T03:28:06;0.90;;;0.57;;
14169;SDS011;63889;50.596;8.690;2023-08-07T03:30:32;0.47;;;0.47;;
14169;SDS011;63889;50.596;8.690;2023-08-07T03:32:58;2.15;;;0.60;;
14169;SDS011;63889;50.596;8.690;2023-08-07T03:35:23;1.33;;;0.50;;
14169;SDS011;63889;50.596;8.690;2023-08-07T03:37:49;1.80;;;0.50;;
14169;SDS011;63889;50.596;8.690;2023-08-07T03:40:14;0.60;;;0.60;;
14169;SDS011;63889;50.596;8.690;2023-08-07T03:42:40;0.60;;;0.40;;
14169;SDS011;63889;50.596;8.690;2023-08-07T03:45:05;1.35;;;0.50;;
14169;SDS011;63889;50.596;8.690;2023-08-07T03:47:31;0.50;;;0.50;;
14169;SDS011;63889;50.596;8.690;2023-08-07T03:49:57;0.70;;;0.60;;
14169;SDS011;63889;50.596;8.690;2023-08-07T03:52:22;1.85;;;0.80;;
14169;SDS011;63889;50.596;8.690;2023-08-07T03:54:48;1.55;;;0.77;;
14169;SDS011;63889;50.596;8.690;2023-08-07T03:57:13;1.60;;;0.82;;
14169;SDS011;63889;50.596;8.690;2023-08-07T03:59:39;0.80;;;0.73;;
14169;SDS011;63889;50.596;8.690;2023-08-07T04:02:04;2.22;;;1.13;;
14169;SDS011;63889;50.596;8.690;2023-08-07T04:04:30;1.23;;;1.10;;
14169;SDS011;63889;50.596;8.690;2023-08-07T04:06:55;2.70;;;0.80;;
14169;SDS011;63889;50.596;8.690;2023-08-07T04:09:21;1.20;;;1.10;;
14169;SDS011;63889;50.596;8.690;2023-08-07T04:11:46;1.83;;;1.15;;
14169;SDS011;63889;50.596;8.690;2023-08-07T04:14:12;1.50;;;0.80;;
14169;SDS011;63889;50.596;8.690;2023-08-07T04:16:37;1.13;;;1.02;;
14169;SDS011;63889;50.596;8.690;2023-08-07T04:19:03;2.25;;;1.60;;
14169;SDS011;63889;50.596;8.690;2023-08-07T04:21:30;1.25;;;0.75;;
14169;SDS011;63889;50.596;8.690;2023-08-07T04:23:55;1.83;;;1.17;;
14169;SDS011;63889;50.596;8.690;2023-08-07T04:26:21;1.65;;;0.85;;
14169;SDS011;63889;50.596;8.690;2023-08-07T04:28:46;3.58;;;0.95;;
14169;SDS011;63889;50.596;8.690;2023-08-07T04:31:12;6.07;;;1.10;;
14169;SDS011;63889;50.596;8.690;2023-08-07T04:33:38;1.83;;;0.75;;
14169;SDS011;63889;50.596;8.690;2023-08-07T04:36:03;1.90;;;0.80;;
14169;SDS011;63889;50.596;8.690;2023-08-07T04:38:29;3.33;;;1.02;;
14169;SDS011;63889;50.596;8.690;2023-08-07T04:40:55;1.95;;;1.05;;
14169;SDS011;63889;50.596;8.690;2023-08-07T04:43:20;2.88;;;1.15;;
14169;SDS011;63889;50.596;8.690;2023-08-07T04:45:46;2.30;;;1.15;;
14169;SDS011;63889;50.596;8.690;2023-08-07T04:48:11;6.35;;;1.33;;
14169;SDS011;63889;50.596;8.690;2023-08-07T04:50:37;3.38;;;1.08;;
14169;SDS011;63889;50.596;8.690;2023-08-07T04:53:06;3.80;;;1.38;;
14169;SDS011;63889;50.596;8.690;2023-08-07T04:55:32;4.72;;;1.40;;
14169;SDS011;63889;50.596;8.690;2023-08-07T04:57:58;2.08;;;1.20;;
14169;SDS011;63889;50.596;8.690;2023-08-07T05:00:24;2.47;;;1.42;;
14169;SDS011;63889;50.596;8.690;2023-08-07T05:02:50;2.60;;;1.20;;
14169;SDS011;63889;50.596;8.690;2023-08-07T05:05:16;2.33;;;1.50;;
14169;SDS011;63889;50.596;8.690;2023-08-07T05:07:44;2.60;;;1.27;;
14169;SDS011;63889;50.596;8.690;2023-08-07T05:10:10;1.27;;;1.17;;
14169;SDS011;63889;50.596;8.690;2023-08-07T05:12:36;2.35;;;1.40;;
14169;SDS011;63889;50.596;8.690;2023-08-07T05:15:01;2.78;;;1.63;;
14169;SDS011;63889;50.596;8.690;2023-08-07T05:17:27;3.58;;;2.55;;
14169;SDS011;63889;50.596;8.690;2023-08-07T05:19:52;1.70;;;1.20;;
14169;SDS011;63889;50.596;8.690;2023-08-07T05:22:18;3.33;;;1.40;;
14169;SDS011;63889;50.596;8.690;2023-08-07T05:24:44;1.98;;;1.13;;
14169;SDS011;63889;50.596;8.690;2023-08-07T05:27:10;3.55;;;1.08;;
14169;SDS011;63889;50.596;8.690;2023-08-07T05:29:36;1.98;;;1.10;;
14169;SDS011;63889;50.596;8.690;2023-08-07T05:32:09;4.55;;;1.50;;
14169;SDS011;63889;50.596;8.690;2023-08-07T05:34:35;2.92;;;1.30;;
14169;SDS011;63889;50.596;8.690;2023-08-07T05:37:01;2.22;;;1.00;;
14169;SDS011;63889;50.596;8.690;2023-08-07T05:39:26;2.08;;;1.10;;
14169;SDS011;63889;50.596;8.690;2023-08-07T05:41:52;2.33;;;1.15;;
14169;SDS011;63889;50.596;8.690;2023-08-07T05:44:19;2.42;;;1.30;;
14169;SDS011;63889;50.596;8.690;2023-08-07T05:46:45;1.98;;;1.30;;
14169;SDS011;63889;50.596;8.690;2023-08-07T05:49:10;3.72;;;1.30;;
14169;SDS011;63889;50.596;8.690;2023-08-07T05:51:36;4.93;;;1.55;;
14169;SDS011;63889;50.596;8.690;2023-08-07T05:54:01;2.50;;;1.10;;
14169;SDS011;63889;50.596;8.690;2023-08-07T05:56:27;4.00;;;1.05;;
14169;SDS011;63889;50.596;8.690;2023-08-07T05:58:53;2.40;;;0.90;;
14169;SDS011;63889;50.596;8.690;2023-08-07T06:01:18;0.95;;;0.73;;
14169;SDS011;63889;50.596;8.690;2023-08-07T06:03:44;1.10;;;0.80;;
14169;SDS011;63889;50.596;8.690;2023-08-07T06:06:09;1.77;;;1.00;;
14169;SDS011;63889;50.596;8.690;2023-08-07T06:08:46;8.63;;;1.27;;
14169;SDS011;63889;50.596;8.690;2023-08-07T06:11:11;0.98;;;0.60;;
14169;SDS011;63889;50.596;8.690;2023-08-07T06:13:37;1.20;;;0.60;;
14169;SDS011;63889;50.596;8.690;2023-08-07T06:16:03;2.40;;;0.57;;
14169;SDS011;63889;50.596;8.690;2023-08-07T06:18:28;2.13;;;0.95;;
14169;SDS011;63889;50.596;8.690;2023-08-07T06:20:55;2.97;;;0.95;;
14169;SDS011;63889;50.596;8.690;2023-08-07T06:23:21;1.55;;;0.85;;
14169;SDS011;63889;50.596;8.690;2023-08-07T06:25:47;3.90;;;0.88;;
14169;SDS011;63889;50.596;8.690;2023-08-07T06:28:12;2.40;;;0.60;;
14169;SDS011;63889;50.596;8.690;2023-08-07T06:30:38;0.82;;;0.80;;
14169;SDS011;63889;50.596;8.690;2023-08-07T06:33:03;2.78;;;1.02;;
14169;SDS011;63889;50.596;8.690;2023-08-07T06:35:29;2.92;;;1.00;;
14169;SDS011;63889;50.596;8.690;2023-08-07T06:37:54;1.55;;;0.80;;
14169;SDS011;63889;50.596;8.690;2023-08-07T06:40:20;1.70;;;0.65;;
14169;SDS011;63889;50.596;8.690;2023-08-07T06:42:46;1.23;;;0.90;;
14169;SDS011;63889;50.596;8.690;2023-08-07T06:45:11;2.00;;;1.10;;
14169;SDS011;63889;50.596;8.690;2023-08-07T06:47:37;1.00;;;0.90;;
14169;SDS011;63889;50.596;8.690;2023-08-07T06:50:02;2.03;;;1.00;;
14169;SDS011;63889;50.596;8.690;2023-08-07T06:52:28;1.33;;;0.93;;
14169;SDS011;63889;50.596;8.690;2023-08-07T06:54:53;2.47;;;0.90;;
14169;SDS011;63889;50.596;8.690;2023-08-07T06:57:19;2.47;;;1.08;;
14169;SDS011;63889;50.596;8.690;2023-08-07T06:59:52;3.25;;;0.80;;
14169;SDS011;63889;50.596;8.690;2023-08-07T07:02:17;1.15;;;0.77;;
14169;SDS011;63889;50.596;8.690;2023-08-07T07:04:43;1.58;;;0.88;;
14169;SDS011;63889;50.596;8.690;2023-08-07T07:07:08;0.95;;;0.73;;
14169;SDS011;63889;50.596;8.690;2023-08-07T07:09:34;0.98;;;0.80;;
14169;SDS011;63889;50.596;8.690;2023-08-07T07:11:59;1.88;;;1.05;;
14169;SDS011;63889;50.596;8.690;2023-08-07T07:14:25;2.30;;;0.75;;
14169;SDS011;63889;50.596;8.690;2023-08-07T07:16:50;1.75;;;0.88;;
14169;SDS011;63889;50.596;8.690;2023-08-07T07:19:16;1.05;;;0.95;;
14169;SDS011;63889;50.596;8.690;2023-08-07T07:21:42;2.17;;;0.75;;
14169;SDS011;63889;50.596;8.690;2023-08-07T07:24:07;1.80;;;0.90;;
14169;SDS011;63889;50.596;8.690;2023-08-07T07:26:33;1.38;;;0.88;;
14169;SDS011;63889;50.596;8.690;2023-08-07T07:28:58;3.63;;;1.00;;
14169;SDS011;63889;50.596;8.690;2023-08-07T07:31:24;1.08;;;0.90;;
14169;SDS011;63889;50.596;8.690;2023-08-07T07:33:49;3.00;;;1.00;;
14169;SDS011;63889;50.596;8.690;2023-08-07T07:36:16;3.72;;;1.35;;
14169;SDS011;63889;50.596;8.690;2023-08-07T07:38:42;2.50;;;1.35;;
14169;SDS011;63889;50.596;8.690;2023-08-07T07:41:08;5.95;;;1.15;;
14169;SDS011;63889;50.596;8.690;2023-08-07T07:43:36;2.65;;;1.40;;
14169;SDS011;63889;50.596;8.690;2023-08-07T07:46:02;2.33;;;1.50;;
14169;SDS011;63889;50.596;8.690;2023-08-07T07:48:27;2.10;;;1.40;;
14169;SDS011;63889;50.596;8.690;2023-08-07T07:53:49;4.50;;;1.52;;
14169;SDS011;63889;50.596;8.690;2023-08-07T07:56:14;2.42;;;1.30;;
14169;SDS011;63889;50.596;8.690;2023-08-07T07:58:40;2.35;;;1.38;;
14169;SDS011;63889;50.596;8.690;2023-08-07T08:01:06;3.15;;;1.50;;
14169;SDS011;63889;50.596;8.690;2023-08-07T08:03:32;1.92;;;1.60;;
14169;SDS011;63889;50.596;8.690;2023-08-07T08:05:57;4.55;;;2.47;;
14169;SDS011;63889;50.596;8.690;2023-08-07T08:08:23;3.35;;;2.38;;
14169;SDS011;63889;50.596;8.690;2023-08-07T08:10:59;4.90;;;2.55;;
14169;SDS011;63889;50.596;8.690;2023-08-07T08:13:25;7.18;;;2.10;;
14169;SDS011;63889;50.596;8.690;2023-08-07T08:15:50;2.92;;;1.45;;
14169;SDS011;63889;50.596;8.690;2023-08-07T08:18:16;5.28;;;1.50;;
14169;SDS011;63889;50.596;8.690;2023-08-07T08:20:41;2.25;;;1.83;;
14169;SDS011;63889;50.596;8.690;2023-08-07T08:23:07;4.32;;;1.90;;
14169;SDS011;63889;50.596;8.690;2023-08-07T08:25:33;4.25;;;1.73;;
14169;SDS011;63889;50.596;8.690;2023-08-07T08:27:58;5.07;;;1.83;;
14169;SDS011;63889;50.596;8.690;2023-08-07T08:30:25;6.03;;;2.33;;
14169;SDS011;63889;50.596;8.690;2023-08-07T08:32:50;7.63;;;1.70;;
14169;SDS011;63889;50.596;8.690;2023-08-07T08:35:16;6.90;;;2.00;;
14169;SDS011;63889;50.596;8.690;2023-08-07T08:37:42;3.47;;;1.70;;
14169;SDS011;63889;50.596;8.690;2023-08-07T08:40:08;6.85;;;1.73;;
14169;SDS011;63889;50.596;8.690;2023-08-07T08:42:37;3.17;;;1.63;;
14169;SDS011;63889;50.596;8.690;2023-08-07T08:45:04;3.22;;;1.40;;
14169;SDS011;63889;50.596;8.690;2023-08-07T08:47:30;5.40;;;1.35;;
14169;SDS011;63889;50.596;8.690;2023-08-07T08:50:04;3.90;;;1.02;;
14169;SDS011;63889;50.596;8.690;2023-08-07T08:52:36;4.50;;;1.20;;
14169;SDS011;63889;50.596;8.690;2023-08-07T08:55:06;2.10;;;1.23;;
14169;SDS011;63889;50.596;8.690;2023-08-07T08:57:32;4.65;;;1.48;;
14169;SDS011;63889;50.596;8.690;2023-08-07T08:59:58;2.22;;;1.60;;
14169;SDS011;63889;50.596;8.690;2023-08-07T09:02:24;2.75;;;1.30;;
14169;SDS011;63889;50.596;8.690;2023-08-07T09:04:51;2.85;;;1.10;;
14169;SDS011;63889;50.596;8.690;2023-08-07T09:07:16;3.28;;;1.27;;
14169;SDS011;63889;50.596;8.690;2023-08-07T09:09:45;3.75;;;1.33;;
14169;SDS011;63889;50.596;8.690;2023-08-07T09:12:15;4.55;;;1.35;;
14169;SDS011;63889;50.596;8.690;2023-08-07T09:14:43;2.92;;;1.20;;
14169;SDS011;63889;50.596;8.690;2023-08-07T09:17:11;2.45;;;1.17;;
14169;SDS011;63889;50.596;8.690;2023-08-07T09:19:38;3.50;;;1.45;;
14169;SDS011;63889;50.596;8.690;2023-08-07T09:22:03;1.83;;;0.90;;
14169;SDS011;63889;50.596;8.690;2023-08-07T09:24:29;3.00;;;0.95;;
14169;SDS011;63889;50.596;8.690;2023-08-07T09:26:55;1.80;;;1.00;;
14169;SDS011;63889;50.596;8.690;2023-08-07T09:29:21;0.68;;;0.60;;
14169;SDS011;63889;50.596;8.690;2023-08-07T09:31:47;1.55;;;0.95;;
14169;SDS011;63889;50.596;8.690;2023-08-07T09:34:13;5.65;;;0.90;;
14169;SDS011;63889;50.596;8.690;2023-08-07T09:36:41;1.45;;;0.95;;
14169;SDS011;63889;50.596;8.690;2023-08-07T09:39:07;0.77;;;0.60;;
14169;SDS011;63889;50.596;8.690;2023-08-07T09:41:32;1.27;;;1.00;;
14169;SDS011;63889;50.596;8.690;2023-08-07T09:44:00;0.93;;;0.80;;
14169;SDS011;63889;50.596;8.690;2023-08-07T09:46:42;1.88;;;0.80;;
14169;SDS011;63889;50.596;8.690;2023-08-07T09:49:08;0.90;;;0.70;;
14169;SDS011;63889;50.596;8.690;2023-08-07T09:51:43;0.80;;;0.70;;
14169;SDS011;63889;50.596;8.690;2023-08-07T09:54:10;2.83;;;0.85;;
14169;SDS011;63889;50.596;8.690;2023-08-07T09:56:36;1.35;;;0.90;;
14169;SDS011;63889;50.596;8.690;2023-08-07T09:59:03;1.60;;;1.10;;
14169;SDS011;63889;50.596;8.690;2023-08-07T10:01:29;3.20;;;1.92;;
14169;SDS011;63889;50.596;8.690;2023-08-07T10:03:55;2.38;;;1.08;;
14169;SDS011;63889;50.596;8.690;2023-08-07T10:06:21;1.45;;;0.98;;
14169;SDS011;63889;50.596;8.690;2023-08-07T10:08:47;1.23;;;1.00;;
14169;SDS011;63889;50.596;8.690;2023-08-07T10:11:13;0.65;;;0.63;;
14169;SDS011;63889;50.596;8.690;2023-08-07T10:13:40;1.05;;;1.00;;
14169;SDS011;63889;50.596;8.690;2023-08-07T10:16:06;1.58;;;1.00;;
14169;SDS011;63889;50.596;8.690;2023-08-07T10:18:32;1.48;;;0.80;;
14169;SDS011;63889;50.596;8.690;2023-08-07T10:20:58;1.48;;;0.70;;
14169;SDS011;63889;50.596;8.690;2023-08-07T10:23:26;2.30;;;0.82;;
14169;SDS011;63889;50.596;8.690;2023-08-07T10:25:52;2.80;;;1.00;;
14169;SDS011;63889;50.596;8.690;2023-08-07T10:28:19;1.10;;;1.00;;
14169;SDS011;63889;50.596;8.690;2023-08-07T10:30:46;0.82;;;0.70;;
14169;SDS011;63889;50.596;8.690;2023-08-07T10:33:13;2.00;;;0.82;;
14169;SDS011;63889;50.596;8.690;2023-08-07T10:35:44;0.80;;;0.80;;
14169;SDS011;63889;50.596;8.690;2023-08-07T10:38:12;1.13;;;0.60;;
14169;SDS011;63889;50.596;8.690;2023-08-07T10:43:36;1.48;;;0.90;;
14169;SDS011;63889;50.596;8.690;2023-08-07T10:46:04;2.88;;;1.50;;
14169;SDS011;63889;50.596;8.690;2023-08-07T10:48:53;0.50;;;0.43;;
14169;SDS011;63889;50.596;8.690;2023-08-07T10:51:23;2.05;;;0.95;;
14169;SDS011;63889;50.596;8.690;2023-08-07T10:53:55;1.73;;;0.60;;
14169;SDS011;63889;50.596;8.690;2023-08-07T10:56:31;2.25;;;0.65;;
14169;SDS011;63889;50.596;8.690;2023-08-07T10:59:06;0.85;;;0.73;;
14169;SDS011;63889;50.596;8.690;2023-08-07T11:04:08;1.10;;;0.55;;
14169;SDS011;63889;50.596;8.690;2023-08-07T11:06:36;0.57;;;0.40;;
14169;SDS011;63889;50.596;8.690;2023-08-07T11:09:03;0.98;;;0.73;;
14169;SDS011;63889;50.596;8.690;2023-08-07T11:11:43;2.03;;;0.80;;
14169;SDS011;63889;50.596;8.690;2023-08-07T11:14:12;0.65;;;0.57;;
14169;SDS011;63889;50.596;8.690;2023-08-07T11:16:42;2.85;;;0.57;;
14169;SDS011;63889;50.596;8.690;2023-08-07T11:19:09;2.45;;;0.80;;
14169;SDS011;63889;50.596;8.690;2023-08-07T11:21:35;0.73;;;0.52;;
14169;SDS011;63889;50.596;8.690;2023-08-07T11:24:01;1.55;;;0.70;;
14169;SDS011;63889;50.596;8.690;2023-08-07T11:26:27;2.72;;;1.20;;
14169;SDS011;63889;50.596;8.690;2023-08-07T11:28:54;1.75;;;0.70;;
14169;SDS011;63889;50.596;8.690;2023-08-07T11:31:20;2.45;;;0.80;;
14169;SDS011;63889;50.596;8.690;2023-08-07T11:33:46;1.83;;;1.02;;
14169;SDS011;63889;50.596;8.690;2023-08-07T11:36:15;2.00;;;1.00;;
14169;SDS011;63889;50.596;8.690;2023-08-07T11:38:41;4.28;;;0.93;;
14169;SDS011;63889;50.596;8.690;2023-08-07T11:41:09;2.15;;;1.13;;
14169;SDS011;63889;50.596;8.690;2023-08-07T11:43:35;3.70;;;1.30;;
14169;SDS011;63889;50.596;8.690;2023-08-07T11:46:02;3.13;;;1.00;;
14169;SDS011;63889;50.596;8.690;2023-08-07T11:48:30;3.85;;;1.42;;
14169;SDS011;63889;50.596;8.690;2023-08-07T11:50:57;7.05;;;1.08;;
14169;SDS011;63889;50.596;8.690;2023-08-07T11:53:24;2.55;;;1.02;;
14169;SDS011;63889;50.596;8.690;2023-08-07T11:56:12;2.55;;;1.10;;
14169;SDS011;63889;50.596;8.690;2023-08-07T11:58:41;2.35;;;0.82;;
14169;SDS011;63889;50.596;8.690;2023-08-07T12:01:11;5.43;;;1.60;;
14169;SDS011;63889;50.596;8.690;2023-08-07T12:03:41;4.97;;;1.02;;
14169;SDS011;63889;50.596;8.690;2023-08-07T12:06:16;6.55;;;1.98;;
14169;SDS011;63889;50.596;8.690;2023-08-07T12:08:42;3.38;;;1.30;;
14169;SDS011;63889;50.596;8.690;2023-08-07T12:11:11;9.18;;;1.67;;
14169;SDS011;63889;50.596;8.690;2023-08-07T12:13:38;6.70;;;1.38;;
14169;SDS011;63889;50.596;8.690;2023-08-07T12:16:08;2.50;;;1.20;;
14169;SDS011;63889;50.596;8.690;2023-08-07T12:18:34;4.13;;;1.08;;
14169;SDS011;63889;50.596;8.690;2023-08-07T12:21:03;1.58;;;1.10;;
14169;SDS011;63889;50.596;8.690;2023-08-07T12:23:32;5.18;;;1.20;;
14169;SDS011;63889;50.596;8.690;2023-08-07T12:25:59;3.40;;;1.00;;
14169;SDS011;63889;50.596;8.690;2023-08-07T12:28:25;1.55;;;0.90;;
14169;SDS011;63889;50.596;8.690;2023-08-07T12:30:51;6.85;;;1.35;;
14169;SDS011;63889;50.596;8.690;2023-08-07T12:33:17;3.63;;;1.08;;
14169;SDS011;63889;50.596;8.690;2023-08-07T12:35:43;2.80;;;1.20;;
14169;SDS011;63889;50.596;8.690;2023-08-07T12:38:08;3.65;;;1.33;;
14169;SDS011;63889;50.596;8.690;2023-08-07T12:40:35;2.90;;;1.40;;
14169;SDS011;63889;50.596;8.690;2023-08-07T12:43:01;4.03;;;1.23;;
14169;SDS011;63889;50.596;8.690;2023-08-07T12:45:27;4.18;;;1.60;;
14169;SDS011;63889;50.596;8.690;2023-08-07T12:47:53;4.78;;;1.35;;
14169;SDS011;63889;50.596;8.690;2023-08-07T12:50:18;7.57;;;1.58;;
14169;SDS011;63889;50.596;8.690;2023-08-07T12:52:44;5.47;;;1.75;;
14169;SDS011;63889;50.596;8.690;2023-08-07T12:55:10;7.45;;;1.75;;
14169;SDS011;63889;50.596;8.690;2023-08-07T12:57:37;4.65;;;1.25;;
14169;SDS011;63889;50.596;8.690;2023-08-07T13:00:03;5.03;;;1.40;;
14169;SDS011;63889;50.596;8.690;2023-08-07T13:02:29;3.85;;;1.58;;
14169;SDS011;63889;50.596;8.690;2023-08-07T13:04:55;3.85;;;1.80;;
14169;SDS011;63889;50.596;8.690;2023-08-07T13:07:22;4.75;;;1.48;;
14169;SDS011;63889;50.596;8.690;2023-08-07T13:09:47;2.92;;;1.25;;
14169;SDS011;63889;50.596;8.690;2023-08-07T13:12:13;2.60;;;1.67;;
14169;SDS011;63889;50.596;8.690;2023-08-07T13:14:38;6.25;;;1.20;;
14169;SDS011;63889;50.596;8.690;2023-08-07T13:17:04;3.70;;;1.25;;
14169;SDS011;63889;50.596;8.690;2023-08-07T13:19:30;5.25;;;1.80;;
14169;SDS011;63889;50.596;8.690;2023-08-07T13:21:55;4.10;;;1.92;;
14169;SDS011;63889;50.596;8.690;2023-08-07T13:24:21;5.25;;;1.90;;
14169;SDS011;63889;50.596;8.690;2023-08-07T13:26:47;5.03;;;1.92;;
14169;SDS011;63889;50.596;8.690;2023-08-07T13:29:13;4.97;;;1.65;;
14169;SDS011;63889;50.596;8.690;2023-08-07T13:31:39;7.80;;;1.80;;
14169;SDS011;63889;50.596;8.690;2023-08-07T13:34:11;5.07;;;1.70;;
14169;SDS011;63889;50.596;8.690;2023-08-07T13:36:37;4.20;;;2.17;;
14169;SDS011;63889;50.596;8.690;2023-08-07T13:39:03;7.75;;;1.92;;
14169;SDS011;63889;50.596;8.690;2023-08-07T13:41:32;11.25;;;1.60;;
14169;SDS011;63889;50.596;8.690;2023-08-07T13:43:58;3.10;;;1.40;;
14169;SDS011;63889;50.596;8.690;2023-08-07T13:46:23;5.53;;;1.60;;
14169;SDS011;63889;50.596;8.690;2023-08-07T13:48:49;6.03;;;1.48;;
14169;SDS011;63889;50.596;8.690;2023-08-07T13:51:15;5.68;;;1.83;;
14169;SDS011;63889;50.596;8.690;2023-08-07T13:53:59;13.18;;;1.95;;
14169;SDS011;63889;50.596;8.690;2023-08-07T13:56:24;4.00;;;1.40;;
14169;SDS011;63889;50.596;8.690;2023-08-07T13:58:50;3.50;;;1.85;;
14169;SDS011;63889;50.596;8.690;2023-08-07T14:01:16;4.00;;;1.63;;
14169;SDS011;63889;50.596;8.690;2023-08-07T14:03:42;7.78;;;1.50;;
14169;SDS011;63889;50.596;8.690;2023-08-07T14:06:07;3.65;;;1.85;;
14169;SDS011;63889;50.596;8.690;2023-08-07T14:08:33;12.15;;;4.40;;
14169;SDS011;63889;50.596;8.690;2023-08-07T14:10:59;12.90;;;4.78;;
14169;SDS011;63889;50.596;8.690;2023-08-07T14:13:25;10.98;;;3.38;;
14169;SDS011;63889;50.596;8.690;2023-08-07T14:15:50;3.33;;;1.65;;
14169;SDS011;63889;50.596;8.690;2023-08-07T14:18:16;6.75;;;2.15;;
14169;SDS011;63889;50.596;8.690;2023-08-07T14:20:41;5.05;;;2.08;;
14169;SDS011;63889;50.596;8.690;2023-08-07T14:23:07;6.07;;;1.58;;
14169;SDS011;63889;50.596;8.690;2023-08-07T14:25:32;6.05;;;1.63;;
14169;SDS011;63889;50.596;8.690;2023-08-07T14:27:58;4.70;;;1.50;;
14169;SDS011;63889;50.596;8.690;2023-08-07T14:30:24;2.08;;;1.10;;
14169;SDS011;63889;50.596;8.690;2023-08-07T14:32:49;4.53;;;1.40;;
14169;SDS011;63889;50.596;8.690;2023-08-07T14:35:15;10.18;;;2.45;;
14169;SDS011;63889;50.596;8.690;2023-08-07T14:37:40;5.53;;;1.60;;
14169;SDS011;63889;50.596;8.690;2023-08-07T14:40:06;3.30;;;1.77;;
14169;SDS011;63889;50.596;8.690;2023-08-07T14:42:32;11.68;;;1.70;;
14169;SDS011;63889;50.596;8.690;2023-08-07T14:44:58;6.97;;;1.60;;
14169;SDS011;63889;50.596;8.690;2023-08-07T14:47:24;4.20;;;1.40;;
14169;SDS011;63889;50.596;8.690;2023-08-07T14:49:50;7.32;;;1.98;;
14169;SDS011;63889;50.596;8.690;2023-08-07T14:52:16;5.47;;;2.00;;
14169;SDS011;63889;50.596;8.690;2023-08-07T14:54:41;3.17;;;1.35;;
14169;SDS011;63889;50.596;8.690;2023-08-07T14:57:07;3.15;;;1.55;;